Saturday, December 15, 2018, 8:44 AM EST
Back to Local

KMSS, Massena International -richards Fld

Location: Massena, NY, United States Lat: 44.933
Local Time: 8:44 AM EST (13:44 GMT) Lon: -74.85
Time Zone: US/Eastern Elev: 213 ft

Show me the last for .
Show Decoded

2018-12-15 08:00 METAR KMSS 151300Z AUTO 22007KT 6SM BR OVC031 02/02 A3025 RMK AO2 T00220017 $ =
2018-12-15 07:53 METAR KMSS 151253Z AUTO 23007KT 6SM BR OVC029 02/02 A3025 RMK AO2 SLP249
                 T00220017 $ =
2018-12-15 07:38 METAR KMSS 151238Z AUTO 23005KT 7SM OVC029 02/02 A3025 RMK AO2 T00220017 $ =
2018-12-15 06:53 METAR KMSS 151153Z AUTO 23006KT 8SM OVC030 02/02 A3023 RMK AO2 SLP241 70017
                 T00220017 51017 $ =
2018-12-15 06:50 METAR KMSS 151150Z AUTO 23007KT 8SM OVC030 02/02 A3023 RMK AO2 $ =
2018-12-15 05:53 METAR KMSS 151053Z AUTO 24007KT 9SM OVC027 03/02 A3021 RMK AO2 SLP237 T00280017
                 $ =
2018-12-15 04:53 METAR KMSS 150953Z AUTO 23005KT 7SM FEW012 BKN025 03/02 A3018 RMK AO2 SLP224
                 T00280022 $ =
2018-12-15 04:46 METAR KMSS 150946Z AUTO 24006KT 7SM SCT013 OVC022 03/02 A3017 RMK AO2 T00280022
                 $ =
2018-12-15 04:39 METAR KMSS 150939Z AUTO 24006KT 6SM BR BKN013 OVC022 03/03 A3017 RMK AO2
                 T00280028 $ =
2018-12-15 03:53 METAR KMSS 150853Z AUTO A3016 RMK AO2 SLPNO 51020 PWINO FZRANO $ =
2018-12-15 03:07 METAR KMSS 150807Z AUTO 04/03 A3017 RMK AO2 T00390033 PWINO $ =
2018-12-15 02:53 METAR KMSS 150753Z AUTO 26005KT 5SM BR OVC006 04/03 A3016 RMK AO2 SLP217
                 T00390033 =
2018-12-15 01:53 METAR KMSS 150653Z AUTO 26008KT 4SM BR OVC006 04/04 A3013 RMK AO2 SLP208
                 T00390039 =
2018-12-15 01:11 METAR KMSS 150611Z AUTO 26005KT 6SM BR BKN009 BKN015 OVC029 04/04 A3011 RMK AO2
                 CIG 007V010 T00390039 =
2018-12-15 01:02 METAR KMSS 150602Z AUTO 24006KT 7SM FEW007 BKN013 OVC030 04/04 A3011 RMK AO2
                 T00440039 =
2018-12-15 00:53 METAR KMSS 150553Z AUTO 25006KT 7SM BKN013 OVC030 04/04 A3011 RMK AO2 SLP200
                 60000 T00440039 10044 20028 53000 =
2018-12-15 00:41 METAR KMSS 150541Z AUTO 25007KT 8SM BKN013 OVC019 04/04 A3011 RMK AO2 T00440039
                 =
2018-12-15 00:28 METAR KMSS 150528Z AUTO 27007KT 10SM BKN017 OVC032 04/04 A3010 RMK AO2 T00440039
                 =
2018-12-14 23:53 METAR KMSS 150453Z AUTO 28008KT 10SM OVC032 04/04 A3010 RMK AO2 RAE07 SLP198
                 P0000 T00440039 400561072 =
2018-12-14 22:53 METAR KMSS 150353Z AUTO 21006KT 9SM -RA BKN035 BKN065 OVC080 04/04 A3008 RMK AO2
                 RAB50 SLP192 P0000 T00390039 =
2018-12-14 21:53 METAR KMSS 150253Z AUTO 22006KT 9SM OVC037 04/04 A3011 RMK AO2 RAB21E38 SLP200
                 P0000 60000 T00440039 58017 =
2018-12-14 20:53 METAR KMSS 150153Z AUTO 22004KT 6SM BR OVC036 03/03 A3013 RMK AO2 RAE14B42E53
                 SLP208 P0000 T00330033 =
2018-12-14 19:53 METAR KMSS 150053Z AUTO 26003KT 5SM -RA BR OVC034 03/03 A3015 RMK AO2 SLP216
                 P0000 T00330033 =
2018-12-14 18:53 METAR KMSS 142353Z AUTO 23003KT 4SM -RA BR OVC035 03/03 A3016 RMK AO2 SLP218
                 P0004 60017 T00280028 10056 20017 56003 =
2018-12-14 18:51 METAR KMSS 142351Z AUTO 23003KT 4SM -RA BR OVC035 03/03 A3016 RMK AO2 P0004 =
2018-12-14 18:20 METAR KMSS 142320Z AUTO 00000KT 2SM -RA BR BKN032 OVC043 03/03 A3016 RMK AO2
                 P0003 T00280028 =
2018-12-14 18:05 METAR KMSS 142305Z AUTO 00000KT 1SM -RA BR SCT031 OVC043 02/02 A3016 RMK AO2
                 P0001 T00220022 =
2018-12-14 17:53 METAR KMSS 142253Z AUTO 14003KT 1 3/4SM RA BR BKN033 OVC039 02/02 A3016 RMK AO2
                 SLP220 P0004 T00220022 =
2018-12-14 17:28 METAR KMSS 142228Z AUTO 00000KT 1 3/4SM -RA BR SCT033 OVC042 02/02 A3016 RMK AO2
                 P0001 T00220022 =
2018-12-14 16:53 METAR KMSS 142153Z AUTO 00000KT 1SM -RA BR FEW031 OVC047 02/02 A3016 RMK AO2
                 SLP219 P0003 T00220022 =
2018-12-14 16:44 METAR KMSS 142144Z AUTO 00000KT 3/4SM -RA BR FEW031 OVC047 02/02 A3016 RMK AO2
                 P0003 T00220022 =
2018-12-14 16:36 METAR KMSS 142136Z AUTO 00000KT 1 3/4SM -RA BR FEW030 OVC048 03/03 A3016 RMK AO2
                 VIS 1V2 1/2 P0003 T00280028 =
2018-12-14 15:53 METAR KMSS 142053Z AUTO 00000KT 4SM -RA BR OVC055 04/04 A3017 RMK AO2 SLP221
                 P0003 60006 T00390039 58017 =
2018-12-14 15:13 METAR KMSS 142013Z AUTO 20003KT 5SM -RA BR SCT028 OVC040 04/04 A3018 RMK AO2
                 P0001 T00390039 =
2018-12-14 14:53 METAR KMSS 141953Z AUTO 22004KT 6SM -RA BR BKN027 OVC035 04/04 A3019 RMK AO2
                 SLP230 P0003 T00440039 =
2018-12-14 14:44 METAR KMSS 141944Z AUTO 23004KT 6SM -RA BR BKN027 OVC042 04/04 A3019 RMK AO2
                 P0002 T00440039 =
2018-12-14 13:53 METAR KMSS 141853Z AUTO 22007KT 9SM -RA SCT030 OVC045 05/03 A3020 RMK AO2 RAB19
                 SLP232 P0000 T00500028 =
2018-12-14 12:53 METAR KMSS 141753Z AUTO 00000KT 10SM BKN070 OVC085 02/M01 A3022 RMK AO2 SLP238
                 T00221011 10022 21072 56041 =
2018-12-14 11:53 METAR KMSS 141653Z AUTO 00000KT 9SM BKN080 01/M03 A3025 RMK AO2 SLP250 T00061028
                 =
2018-12-14 10:53 METAR KMSS 141553Z AUTO 00000KT 8SM SCT034 M01/M04 A3030 RMK AO2 PRESFR SLP266
                 T10111039 =
2018-12-14 09:53 METAR KMSS 141453Z AUTO 00000KT 7SM OVC034 M03/M06 A3034 RMK AO2 SLP281
                 T10331056 53001 =
2018-12-14 08:53 METAR KMSS 141353Z AUTO 05003KT 6SM BR BKN036 M04/M07 A3033 RMK AO2 SLP280
                 T10441067 =

Support USWX by starting your Amazon purchase here.